Time;durP1;ratioP1;P1;durP2;ratioP2;P2;SDS_P1;SDS_P2;PMS_P1;PMS_P2;Temp;Humidity;BMP_temperature;BMP_pressure;BME280_temperature;BME280_humidity;BME280_pressure;Samples;Min_cycle;Max_cycle;Signal;HPM_P1;HPM_P2
2022/05/06 00:00:24;;;;;;;7.30;3.15;;;24.60;49.10;;;;;;6284249;27;80361;-66
2022/05/06 00:03:24;;;;;;;3.85;2.83;;;24.50;49.10;;;;;;6286058;27;80412;-66
2022/05/06 00:06:25;;;;;;;6.20;2.95;;;24.50;49.20;;;;;;6285321;27;81468;-67
2022/05/06 00:09:25;;;;;;;4.60;3.15;;;24.50;49.00;;;;;;6260659;27;81969;-65
2022/05/06 00:12:26;;;;;;;4.43;2.78;;;24.60;49.40;;;;;;6276690;27;80385;-66
2022/05/06 00:15:26;;;;;;;7.07;3.25;;;24.60;49.40;;;;;;6284477;27;80284;-66
2022/05/06 00:18:27;;;;;;;4.95;2.83;;;24.60;49.30;;;;;;6284339;27;80379;-65
2022/05/06 00:21:27;;;;;;;4.38;3.20;;;24.50;49.30;;;;;;6277418;27;80080;-66
2022/05/06 00:24:31;;;;;;;4.45;2.88;;;24.60;49.30;;;;;;6268183;27;80616;-66
2022/05/06 00:27:31;;;;;;;5.00;2.80;;;24.60;49.10;;;;;;6284204;27;80904;-66
2022/05/06 00:30:33;;;;;;;5.00;2.70;;;24.60;49.00;;;;;;6282663;27;80605;-66
2022/05/06 00:33:33;;;;;;;4.68;3.08;;;24.60;49.10;;;;;;6282245;27;83798;-66
2022/05/06 00:36:34;;;;;;;4.47;2.83;;;24.60;49.30;;;;;;6272412;27;80377;-66
2022/05/06 00:39:36;;;;;;;6.22;3.35;;;24.60;49.20;;;;;;6280764;27;80475;-64
2022/05/06 00:42:37;;;;;;;4.57;2.90;;;24.60;49.10;;;;;;6283738;27;80138;-64
2022/05/06 00:45:38;;;;;;;7.07;2.78;;;24.60;49.10;;;;;;6284931;27;80325;-64
2022/05/06 00:48:39;;;;;;;3.22;2.63;;;24.60;49.10;;;;;;6287564;27;80482;-64
2022/05/06 00:51:40;;;;;;;4.65;3.08;;;24.60;49.00;;;;;;6285731;27;83032;-64
2022/05/06 00:54:40;;;;;;;3.50;2.67;;;24.60;49.00;;;;;;6287635;27;80424;-64
2022/05/06 00:57:41;;;;;;;11.30;3.40;;;24.60;48.90;;;;;;6286396;27;87566;-65
2022/05/06 01:00:43;;;;;;;4.40;2.75;;;24.60;48.70;;;;;;6287788;27;80414;-65
2022/05/06 01:03:44;;;;;;;6.03;3.22;;;24.50;48.90;;;;;;6280537;27;80339;-66
2022/05/06 01:06:45;;;;;;;5.20;2.90;;;24.50;49.00;;;;;;6268059;27;83167;-65
2022/05/06 01:09:45;;;;;;;4.68;3.55;;;24.50;49.00;;;;;;6286464;27;80200;-65
2022/05/06 01:12:46;;;;;;;4.35;2.75;;;24.50;49.10;;;;;;6284024;27;88054;-65
2022/05/06 01:15:51;;;;;;;3.73;2.87;;;24.40;49.10;;;;;;6286003;27;82254;-65
2022/05/06 01:18:57;;;;;;;5.30;3.00;;;24.50;49.20;;;;;;6285760;27;82775;-66
2022/05/06 01:21:57;;;;;;;7.47;3.42;;;24.50;49.20;;;;;;6285707;27;83319;-66
2022/05/06 01:24:58;;;;;;;7.72;3.38;;;24.50;49.10;;;;;;6286958;27;80179;-67
2022/05/06 01:28:03;;;;;;;5.03;3.17;;;24.50;48.80;;;;;;6262249;27;81992;-66
2022/05/06 01:31:03;;;;;;;7.20;4.00;;;24.50;49.00;;;;;;6271077;27;80349;-66
2022/05/06 01:34:05;;;;;;;5.63;3.40;;;24.50;49.10;;;;;;6286902;27;80754;-66
2022/05/06 01:37:05;;;;;;;5.35;3.15;;;24.50;49.00;;;;;;6286149;27;80786;-66
2022/05/06 01:40:06;;;;;;;4.65;3.53;;;24.50;49.00;;;;;;6287129;27;80608;-67
2022/05/06 01:43:11;;;;;;;5.15;2.95;;;24.60;49.50;;;;;;6285270;27;83327;-67
2022/05/06 01:46:13;;;;;;;5.78;2.90;;;24.50;48.90;;;;;;6262683;27;81566;-66
2022/05/06 01:49:15;;;;;;;6.28;3.20;;;24.50;48.90;;;;;;6278907;27;82315;-65
2022/05/06 01:52:17;;;;;;;5.68;3.00;;;24.50;48.90;;;;;;6284409;27;82220;-65
2022/05/06 01:55:18;;;;;;;4.13;2.97;;;24.50;48.90;;;;;;6285110;27;82902;-66
2022/05/06 01:58:40;;;;;;;5.30;3.05;;;24.50;48.80;;;;;;6273682;27;83097;-66
2022/05/06 02:01:42;;;;;;;6.32;3.13;;;24.50;48.70;;;;;;6284374;27;87562;-64
2022/05/06 02:08:08;;;;;;;3.83;2.83;;;24.50;48.80;;;;;;6284472;27;83670;-66
2022/05/06 02:11:11;;;;;;;5.25;3.05;;;24.50;48.70;;;;;;6283844;27;81512;-65
2022/05/06 02:14:12;;;;;;;6.70;3.38;;;24.60;48.70;;;;;;6284335;27;83156;-65
2022/05/06 02:17:45;;;;;;;6.78;2.70;;;24.50;48.80;;;;;;6284037;27;83099;-66
2022/05/06 02:21:11;;;;;;;3.40;3.08;;;24.50;48.60;;;;;;6283990;27;82022;-65
2022/05/06 02:24:30;;;;;;;5.15;2.97;;;24.60;48.70;;;;;;6282607;27;80553;-65
2022/05/06 02:27:59;;;;;;;3.20;2.90;;;24.60;48.80;;;;;;6284355;27;80196;-65
2022/05/06 02:34:20;;;;;;;4.80;3.13;;;24.50;48.60;;;;;;6284172;27;83604;-65
2022/05/06 02:37:24;;;;;;;3.90;2.97;;;24.50;48.50;;;;;;6283728;27;82584;-65
2022/05/06 02:40:27;;;;;;;6.70;3.45;;;24.50;48.90;;;;;;6284019;27;83377;-66
2022/05/06 02:43:30;;;;;;;4.10;2.83;;;24.50;48.60;;;;;;6283720;27;83020;-65
2022/05/06 02:46:31;;;;;;;9.18;3.10;;;24.50;48.60;;;;;;6283329;27;81355;-65
2022/05/06 02:49:31;;;;;;;4.30;3.10;;;24.50;48.60;;;;;;6284737;27;80475;-66
2022/05/06 02:52:32;;;;;;;4.72;3.00;;;24.50;48.50;;;;;;6283927;27;83174;-66
2022/05/06 02:55:33;;;;;;;4.30;3.20;;;24.50;48.60;;;;;;6283776;27;81717;-66
2022/05/06 02:58:35;;;;;;;5.72;3.20;;;24.50;48.50;;;;;;6265819;27;83629;-66
2022/05/06 03:01:36;;;;;;;4.15;3.40;;;24.50;48.50;;;;;;6282956;27;82841;-66
2022/05/06 03:04:41;;;;;;;3.90;2.88;;;24.50;48.50;;;;;;6283744;27;82682;-65
2022/05/06 03:07:42;;;;;;;3.75;3.03;;;24.50;48.50;;;;;;6283207;27;89644;-66
2022/05/06 03:10:45;;;;;;;3.35;2.80;;;24.50;48.60;;;;;;6255888;27;87602;-65
2022/05/06 03:13:47;;;;;;;4.47;3.22;;;24.50;48.50;;;;;;6283509;27;81687;-65
2022/05/06 03:16:51;;;;;;;6.25;3.30;;;24.50;48.50;;;;;;6283135;27;82669;-65
2022/05/06 03:19:52;;;;;;;6.18;3.00;;;24.50;48.50;;;;;;6283217;27;81854;-65
2022/05/06 03:22:53;;;;;;;3.50;3.00;;;24.50;48.50;;;;;;6266403;27;83792;-65
2022/05/06 03:25:54;;;;;;;6.15;3.70;;;24.50;48.50;;;;;;6267036;27;83505;-68
2022/05/06 03:28:57;;;;;;;5.40;3.50;;;24.50;48.40;;;;;;6283047;27;80925;-65
2022/05/06 03:31:58;;;;;;;3.97;2.90;;;24.50;48.50;;;;;;6280032;27;83926;-67
2022/05/06 03:34:59;;;;;;;3.97;3.28;;;24.50;48.50;;;;;;6278300;27;83082;-67
2022/05/06 03:38:00;;;;;;;4.15;3.08;;;24.60;48.60;;;;;;6269112;27;80726;-67
2022/05/06 03:41:00;;;;;;;4.75;3.20;;;24.50;48.50;;;;;;6275111;27;81603;-67
2022/05/06 03:44:02;;;;;;;3.78;2.97;;;24.50;48.50;;;;;;6274086;27;82853;-65
2022/05/06 03:47:03;;;;;;;3.28;2.90;;;24.50;49.00;;;;;;6282934;27;83337;-65
2022/05/06 03:53:28;;;;;;;5.20;3.05;;;24.50;48.80;;;;;;6262709;27;80426;-66
2022/05/06 03:56:29;;;;;;;5.40;3.40;;;24.50;48.80;;;;;;6263540;27;83242;-65
2022/05/06 03:59:34;;;;;;;7.93;3.20;;;24.50;49.10;;;;;;6263894;27;80459;-65
2022/05/06 04:02:43;;;;;;;6.15;3.80;;;24.50;49.20;;;;;;6259761;27;81569;-64
2022/05/06 04:05:47;;;;;;;5.68;3.83;;;24.50;49.30;;;;;;6281040;27;82860;-63
2022/05/06 04:08:48;;;;;;;6.63;3.72;;;24.50;49.30;;;;;;6279694;27;81625;-63
2022/05/06 04:11:49;;;;;;;6.82;4.30;;;24.50;49.40;;;;;;6265368;27;82781;-64
2022/05/06 04:14:49;;;;;;;6.57;3.13;;;24.40;49.40;;;;;;6282664;27;81421;-64
2022/05/06 04:17:51;;;;;;;5.68;3.45;;;24.50;49.60;;;;;;6260302;27;81646;-64
2022/05/06 04:24:14;;;;;;;9.40;3.60;;;24.40;50.40;;;;;;6286196;27;82768;-63
2022/05/06 04:27:16;;;;;;;9.05;4.90;;;24.50;50.60;;;;;;6288023;27;80266;-66
2022/05/06 04:30:18;;;;;;;7.00;3.55;;;24.50;50.60;;;;;;6286393;27;83138;-63
2022/05/06 04:33:34;;;;;;;6.57;3.70;;;24.50;50.40;;;;;;6286628;27;82891;-65
2022/05/06 04:36:38;;;;;;;6.38;3.65;;;24.50;50.50;;;;;;6285999;27;82576;-66
2022/05/06 04:39:39;;;;;;;11.90;4.43;;;24.60;50.50;;;;;;6286199;27;82044;-62
2022/05/06 04:42:40;;;;;;;5.28;3.50;;;24.60;50.20;;;;;;6285859;27;83156;-62
2022/05/06 04:45:42;;;;;;;7.75;3.90;;;24.60;50.40;;;;;;6284147;27;82123;-60
2022/05/06 04:48:45;;;;;;;8.57;4.35;;;24.60;50.30;;;;;;6285104;27;83139;-63
2022/05/06 04:51:48;;;;;;;5.50;3.70;;;24.60;50.30;;;;;;6278268;27;81546;-62
2022/05/06 04:54:49;;;;;;;6.47;3.70;;;24.60;50.50;;;;;;6286006;27;83444;-62
2022/05/06 04:57:50;;;;;;;9.20;4.22;;;24.60;50.60;;;;;;6285937;27;83370;-62
2022/05/06 05:00:50;;;;;;;6.03;3.65;;;24.60;50.70;;;;;;6285807;27;80455;-63
2022/05/06 05:03:51;;;;;;;9.15;4.13;;;24.60;50.50;;;;;;6285822;27;83331;-63
2022/05/06 05:06:54;;;;;;;6.78;3.25;;;24.60;50.60;;;;;;6285440;27;82974;-63
2022/05/06 05:09:57;;;;;;;8.57;3.53;;;24.50;50.40;;;;;;6283049;27;81623;-63
2022/05/06 05:12:58;;;;;;;7.47;3.72;;;24.60;50.60;;;;;;6265185;27;82649;-64
2022/05/06 05:16:04;;;;;;;6.82;3.75;;;24.60;50.60;;;;;;6278189;27;83192;-64
2022/05/06 05:19:05;;;;;;;10.70;3.83;;;24.60;50.80;;;;;;6269541;27;82793;-63
2022/05/06 05:22:07;;;;;;;6.72;4.00;;;24.60;50.90;;;;;;6273229;27;81735;-63
2022/05/06 05:25:09;;;;;;;6.88;3.72;;;24.60;51.00;;;;;;6260038;27;81462;-63
2022/05/06 05:28:10;;;;;;;8.10;4.40;;;24.60;50.80;;;;;;6274613;27;83303;-62
2022/05/06 05:31:14;;;;;;;6.57;3.72;;;24.60;50.80;;;;;;6284464;27;82338;-63
2022/05/06 05:34:15;;;;;;;8.30;3.97;;;24.60;50.80;;;;;;6286679;27;80290;-63
2022/05/06 05:37:17;;;;;;;6.10;3.60;;;24.70;50.80;;;;;;6285261;27;81996;-63
2022/05/06 05:40:18;;;;;;;7.40;4.20;;;24.60;50.80;;;;;;6284372;27;82873;-64
2022/05/06 05:50:06;;;;;;;5.85;3.80;;;24.60;51.00;;;;;;6267091;27;87015;-63
2022/05/06 05:53:08;;;;;;;7.82;4.18;;;24.70;51.10;;;;;;6284648;27;82990;-63
2022/05/06 05:56:09;;;;;;;7.50;4.50;;;24.70;51.20;;;;;;6280603;27;83325;-63
2022/05/06 05:59:10;;;;;;;10.60;4.38;;;24.70;51.10;;;;;;6283556;27;82723;-67
2022/05/06 06:02:11;;;;;;;10.70;4.35;;;24.70;51.10;;;;;;6285495;27;80701;-66
2022/05/06 06:05:15;;;;;;;11.82;4.65;;;24.70;51.20;;;;;;6284758;27;82793;-63
2022/05/06 06:08:18;;;;;;;6.03;4.00;;;24.70;51.10;;;;;;6284819;27;82333;-64
2022/05/06 06:11:20;;;;;;;8.05;4.50;;;24.70;51.10;;;;;;6283537;27;82421;-63
2022/05/06 06:14:24;;;;;;;6.65;3.97;;;24.70;51.20;;;;;;6284477;27;82594;-63
2022/05/06 06:17:24;;;;;;;20.63;6.25;;;24.70;51.00;;;;;;6283889;27;80466;-63
2022/05/06 06:20:26;;;;;;;12.77;5.10;;;24.70;50.90;;;;;;6284256;27;83358;-63
2022/05/06 06:23:27;;;;;;;8.60;4.95;;;24.70;51.20;;;;;;6280078;27;80186;-63
2022/05/06 06:26:28;;;;;;;8.73;4.97;;;24.70;51.30;;;;;;6273042;27;83177;-63
2022/05/06 06:29:35;;;;;;;7.60;4.80;;;24.60;51.30;;;;;;6283708;27;81699;-64
2022/05/06 06:32:36;;;;;;;8.95;5.40;;;24.60;51.20;;;;;;6283974;27;83293;-64
2022/05/06 06:35:39;;;;;;;10.77;5.47;;;24.60;51.20;;;;;;6284193;27;81985;-63
2022/05/06 06:38:39;;;;;;;9.00;5.13;;;24.60;51.40;;;;;;6283861;27;83013;-63
2022/05/06 06:41:40;;;;;;;9.43;5.43;;;24.60;51.60;;;;;;6283908;27;81920;-63
2022/05/06 06:44:41;;;;;;;10.10;4.38;;;24.60;51.50;;;;;;6284455;27;80742;-65
2022/05/06 06:48:06;;;;;;;9.63;6.35;;;24.60;51.70;;;;;;6269046;27;82517;-63
2022/05/06 06:51:20;;;;;;;12.02;7.40;;;24.50;51.80;;;;;;6268608;27;82471;-64
2022/05/06 06:54:27;;;;;;;12.23;7.47;;;24.30;52.40;;;;;;6283771;27;80457;-64
2022/05/06 06:57:28;;;;;;;15.55;8.32;;;24.10;53.00;;;;;;6284467;27;80723;-62
2022/05/06 07:00:28;;;;;;;13.32;7.20;;;24.10;53.40;;;;;;6282403;27;80666;-62
2022/05/06 07:03:29;;;;;;;9.13;5.93;;;24.00;53.50;;;;;;6259917;27;80343;-62
2022/05/06 07:13:08;;;;;;;11.13;6.50;;;23.90;53.30;;;;;;6284190;27;80583;-63
2022/05/06 07:16:09;;;;;;;12.70;6.78;;;24.00;53.40;;;;;;6272873;27;80446;-63
2022/05/06 07:19:09;;;;;;;12.70;6.97;;;24.00;53.20;;;;;;6284370;27;80510;-62
2022/05/06 07:22:10;;;;;;;9.25;6.40;;;24.00;53.00;;;;;;6279596;27;83190;-64
2022/05/06 07:25:19;;;;;;;12.88;7.25;;;23.90;53.40;;;;;;6275936;27;81568;-62
2022/05/06 07:28:20;;;;;;;11.38;7.35;;;23.90;53.50;;;;;;6258968;27;80409;-63
2022/05/06 07:31:20;;;;;;;11.55;7.40;;;23.90;53.60;;;;;;6283619;27;80676;-62
2022/05/06 07:34:21;;;;;;;17.40;8.07;;;23.90;53.80;;;;;;6283931;27;80499;-63
2022/05/06 07:37:21;;;;;;;10.73;8.38;;;23.90;53.80;;;;;;6282554;27;81755;-63
2022/05/06 07:40:22;;;;;;;12.38;8.25;;;23.80;54.40;;;;;;6284023;27;80723;-63
2022/05/06 07:43:22;;;;;;;14.90;8.50;;;23.80;54.70;;;;;;6283816;27;81043;-63
2022/05/06 07:46:24;;;;;;;11.77;8.00;;;23.80;54.70;;;;;;6283668;27;82061;-63
2022/05/06 07:49:25;;;;;;;13.52;9.05;;;23.70;54.70;;;;;;6283697;27;80375;-64
2022/05/06 07:52:26;;;;;;;10.45;7.55;;;23.70;54.60;;;;;;6283959;27;80345;-64
2022/05/06 07:55:26;;;;;;;13.95;8.32;;;23.80;54.40;;;;;;6282535;27;80121;-64
2022/05/06 07:58:27;;;;;;;9.00;7.10;;;23.80;54.60;;;;;;6283823;27;80977;-63
2022/05/06 08:04:48;;;;;;;14.23;7.78;;;23.80;54.30;;;;;;6266213;27;84873;-63
2022/05/06 08:07:49;;;;;;;11.52;7.25;;;23.80;54.20;;;;;;6283817;27;81575;-63
2022/05/06 08:10:49;;;;;;;17.45;8.20;;;23.90;53.90;;;;;;6283257;27;80807;-63
2022/05/06 08:13:51;;;;;;;12.00;7.53;;;23.90;53.90;;;;;;6283533;27;81576;-66
2022/05/06 08:16:51;;;;;;;15.40;8.25;;;23.90;53.80;;;;;;6271781;27;80362;-63
2022/05/06 08:19:52;;;;;;;13.20;8.38;;;23.90;54.00;;;;;;6275783;27;80597;-63
2022/05/06 08:22:52;;;;;;;13.60;7.75;;;24.00;54.60;;;;;;6271567;27;81083;-63
2022/05/06 08:25:53;;;;;;;13.07;8.63;;;23.80;55.00;;;;;;6262073;27;83292;-65
2022/05/06 08:28:53;;;;;;;12.98;7.80;;;23.90;54.80;;;;;;6262706;27;86628;-64
2022/05/06 08:31:54;;;;;;;20.15;7.63;;;23.90;54.20;;;;;;6278862;27;80837;-64
2022/05/06 08:34:54;;;;;;;15.57;7.63;;;23.90;54.30;;;;;;6283352;27;80181;-63
2022/05/06 08:37:55;;;;;;;14.85;8.55;;;23.90;54.60;;;;;;6264629;27;81201;-68
2022/05/06 08:40:56;;;;;;;15.68;8.35;;;23.90;54.70;;;;;;6281812;27;80633;-64
2022/05/06 08:43:57;;;;;;;10.38;7.45;;;23.90;54.50;;;;;;6275490;27;81174;-64
2022/05/06 08:53:37;;;;;;;9.68;7.50;;;23.90;54.10;;;;;;6275503;27;81559;-64
2022/05/06 08:56:37;;;;;;;10.65;7.30;;;23.90;54.30;;;;;;6273870;27;80603;-65
2022/05/06 08:59:38;;;;;;;13.48;7.40;;;23.90;53.80;;;;;;6260538;27;81558;-64
2022/05/06 09:02:39;;;;;;;12.80;7.72;;;24.00;53.60;;;;;;6266929;27;80614;-64
2022/05/06 09:05:39;;;;;;;12.98;8.45;;;24.00;53.60;;;;;;6274259;27;80836;-64
2022/05/06 09:08:40;;;;;;;9.75;7.22;;;24.00;53.60;;;;;;6265472;27;80661;-64
2022/05/06 09:18:19;;;;;;;13.52;9.13;;;24.00;53.70;;;;;;6281373;27;80194;-63
2022/05/06 09:21:20;;;;;;;15.70;8.98;;;24.00;53.80;;;;;;6281284;27;81502;-63
2022/05/06 09:24:20;;;;;;;14.45;9.00;;;24.00;53.70;;;;;;6282082;27;81026;-64
2022/05/06 09:27:21;;;;;;;15.63;9.93;;;24.00;54.00;;;;;;6282990;27;80568;-64
2022/05/06 09:30:22;;;;;;;16.05;10.20;;;24.00;53.90;;;;;;6276617;27;80598;-64
2022/05/06 09:33:22;;;;;;;17.50;10.77;;;24.00;54.50;;;;;;6274433;27;83183;-63
2022/05/06 09:36:23;;;;;;;19.23;9.35;;;24.00;54.00;;;;;;6270645;27;83204;-64
2022/05/06 09:39:23;;;;;;;16.77;9.07;;;24.00;54.20;;;;;;6268460;27;84167;-64
2022/05/06 09:42:24;;;;;;;14.68;8.95;;;24.00;54.10;;;;;;6268645;27;81437;-64
2022/05/06 09:45:24;;;;;;;15.40;8.90;;;24.00;53.50;;;;;;6267058;27;80466;-64
2022/05/06 09:48:25;;;;;;;16.15;9.90;;;24.10;53.70;;;;;;6261280;27;80385;-64
2022/05/06 09:51:26;;;;;;;15.20;9.20;;;24.10;53.80;;;;;;6267990;27;81647;-64
2022/05/06 09:54:26;;;;;;;21.33;8.80;;;24.10;53.60;;;;;;6271570;27;81632;-63
2022/05/06 09:57:27;;;;;;;19.02;9.68;;;24.10;53.60;;;;;;6277156;27;80369;-63
2022/05/06 10:00:28;;;;;;;15.13;9.32;;;24.10;54.10;;;;;;6278234;27;80419;-64
2022/05/06 10:03:28;;;;;;;15.95;9.32;;;24.10;53.90;;;;;;6265786;27;80462;-63
2022/05/06 10:06:29;;;;;;;17.33;9.95;;;24.10;53.70;;;;;;6285677;27;81287;-63
2022/05/06 10:09:29;;;;;;;15.48;10.68;;;24.10;54.00;;;;;;6285947;27;80430;-63
2022/05/06 10:12:30;;;;;;;25.10;11.70;;;24.10;53.90;;;;;;6281968;27;83071;-62
2022/05/06 10:15:30;;;;;;;29.58;12.80;;;24.20;53.90;;;;;;6277231;27;83206;-63
2022/05/06 10:18:31;;;;;;;32.45;15.48;;;24.20;54.20;;;;;;6272847;27;84071;-63
2022/05/06 10:21:32;;;;;;;44.05;19.10;;;24.20;54.30;;;;;;6267270;27;84043;-63
2022/05/06 10:24:33;;;;;;;52.05;19.48;;;24.20;54.60;;;;;;6259720;27;82981;-65
2022/05/06 10:34:12;;;;;;;55.67;22.13;;;24.40;55.50;;;;;;6281734;27;83413;-65
2022/05/06 10:37:12;;;;;;;53.97;22.30;;;24.30;55.00;;;;;;6281630;27;82941;-64
2022/05/06 10:40:13;;;;;;;48.67;21.15;;;24.40;55.30;;;;;;6281656;27;83232;-65
2022/05/06 10:43:13;;;;;;;44.67;20.85;;;24.40;55.60;;;;;;6270030;27;83478;-65
2022/05/06 10:46:14;;;;;;;45.63;18.88;;;24.40;55.40;;;;;;6262327;27;83420;-65
2022/05/06 10:49:14;;;;;;;50.65;19.60;;;24.40;55.00;;;;;;6272102;27;90374;-64
2022/05/06 10:52:15;;;;;;;44.20;17.30;;;24.40;55.30;;;;;;6275661;27;83006;-64
2022/05/06 10:55:16;;;;;;;41.53;17.67;;;24.40;55.30;;;;;;6263143;27;83085;-65
2022/05/06 10:58:16;;;;;;;35.83;17.13;;;24.40;54.80;;;;;;6257366;27;83114;-65
2022/05/06 11:01:17;;;;;;;36.78;16.48;;;24.40;55.10;;;;;;6267046;27;83562;-64
2022/05/06 11:04:17;;;;;;;25.30;14.43;;;24.40;54.80;;;;;;6257708;27;83955;-65
2022/05/06 11:07:18;;;;;;;26.60;14.57;;;24.40;55.20;;;;;;6261730;27;84173;-65
2022/05/06 11:10:18;;;;;;;30.45;14.40;;;24.40;55.10;;;;;;6258451;27;84121;-64
2022/05/06 11:13:19;;;;;;;24.73;13.23;;;24.40;54.90;;;;;;6258969;27;83356;-64
2022/05/06 11:16:19;;;;;;;29.92;13.13;;;24.40;54.90;;;;;;6257575;27;83128;-65
2022/05/06 11:19:20;;;;;;;28.30;14.63;;;24.40;54.30;;;;;;6266626;27;88705;-65
2022/05/06 11:22:23;;;;;;;23.63;11.80;;;24.40;54.20;;;;;;6262690;27;83484;-65
2022/05/06 11:25:23;;;;;;;25.10;12.38;;;24.50;54.60;;;;;;6257726;27;84182;-65
2022/05/06 11:28:24;;;;;;;28.67;12.50;;;24.40;54.20;;;;;;6257567;27;84213;-66
2022/05/06 11:31:25;;;;;;;20.02;10.77;;;24.50;53.90;;;;;;6261629;27;82968;-64
2022/05/06 11:34:25;;;;;;;16.15;10.32;;;24.50;54.00;;;;;;6258946;27;83035;-66
2022/05/06 11:37:26;;;;;;;24.80;12.43;;;24.50;54.20;;;;;;6265812;27;83007;-65
2022/05/06 11:43:28;;;;;;;18.30;9.60;;;24.50;53.90;;;;;;6259943;27;82978;-65
2022/05/06 11:49:48;;;;;;;26.35;12.60;;;24.50;53.90;;;;;;6271885;27;83871;-63
2022/05/06 11:52:49;;;;;;;19.17;12.02;;;24.50;54.30;;;;;;6263043;27;82812;-62
2022/05/06 11:55:49;;;;;;;19.27;12.23;;;24.40;54.20;;;;;;6262205;27;83139;-63
2022/05/06 11:58:50;;;;;;;26.83;12.02;;;24.40;53.90;;;;;;6261501;27;83032;-63
2022/05/06 12:01:50;;;;;;;17.70;11.73;;;24.40;53.80;;;;;;6260000;27;84038;-63
2022/05/06 12:04:51;;;;;;;18.10;11.50;;;24.40;54.20;;;;;;6259228;27;86214;-63
2022/05/06 12:07:52;;;;;;;17.17;12.27;;;24.30;53.80;;;;;;6259136;27;82970;-63
2022/05/06 12:10:52;;;;;;;24.48;13.77;;;24.30;54.10;;;;;;6260215;27;83415;-63
2022/05/06 12:13:53;;;;;;;23.00;13.18;;;24.30;54.10;;;;;;6279643;27;82948;-63
2022/05/06 12:16:53;;;;;;;19.35;13.02;;;24.30;54.10;;;;;;6279838;27;83000;-63
2022/05/06 12:19:54;;;;;;;19.10;11.85;;;24.30;54.20;;;;;;6279577;27;83483;-63
2022/05/06 12:22:54;;;;;;;17.58;11.60;;;24.30;54.20;;;;;;6279655;27;84066;-63
2022/05/06 12:25:55;;;;;;;22.38;12.95;;;24.30;53.90;;;;;;6272552;27;83558;-63
2022/05/06 12:28:56;;;;;;;19.20;12.07;;;24.30;54.10;;;;;;6279856;27;83076;-63
2022/05/06 12:31:56;;;;;;;17.23;12.52;;;24.30;53.90;;;;;;6279857;27;83799;-63
2022/05/06 12:34:57;;;;;;;21.60;12.00;;;24.30;53.90;;;;;;6274162;27;83237;-63
2022/05/06 12:37:57;;;;;;;16.15;10.63;;;24.20;53.80;;;;;;6270419;27;84870;-63
2022/05/06 12:40:58;;;;;;;19.25;11.65;;;24.30;53.30;;;;;;6275159;27;84248;-62
2022/05/06 12:43:59;;;;;;;19.67;12.00;;;24.30;53.30;;;;;;6278615;27;83556;-63
2022/05/06 12:46:59;;;;;;;18.70;10.85;;;24.30;53.40;;;;;;6283465;27;83121;-63
2022/05/06 12:50:00;;;;;;;20.25;12.15;;;24.30;53.20;;;;;;6279984;27;83100;-63
2022/05/06 12:53:00;;;;;;;26.02;12.65;;;24.20;53.10;;;;;;6280423;27;83191;-63
2022/05/06 12:56:01;;;;;;;16.88;12.00;;;24.20;53.20;;;;;;6282249;27;84111;-64
2022/05/06 12:59:01;;;;;;;19.13;11.85;;;24.20;53.10;;;;;;6283576;27;83109;-64
2022/05/06 13:02:04;;;;;;;22.77;12.55;;;24.30;52.90;;;;;;6283497;27;83251;-63
2022/05/06 13:05:04;;;;;;;16.90;11.40;;;24.20;53.00;;;;;;6283550;27;82964;-63
2022/05/06 13:08:06;;;;;;;20.85;12.52;;;24.20;53.10;;;;;;6283308;27;84543;-63
2022/05/06 13:11:07;;;;;;;18.27;11.05;;;24.20;53.30;;;;;;6281590;27;83189;-62
2022/05/06 13:14:07;;;;;;;20.08;11.88;;;24.20;53.20;;;;;;6283164;27;82959;-62
2022/05/06 13:17:08;;;;;;;22.33;11.93;;;24.20;52.80;;;;;;6283065;27;83257;-62
2022/05/06 13:20:09;;;;;;;17.77;10.57;;;24.30;52.80;;;;;;6283079;27;82929;-62
2022/05/06 13:23:09;;;;;;;15.20;10.48;;;24.30;53.10;;;;;;6283435;27;82932;-63
2022/05/06 13:26:10;;;;;;;19.15;11.18;;;24.30;53.20;;;;;;6282644;27;83985;-68
2022/05/06 13:29:11;;;;;;;15.23;10.07;;;24.30;53.10;;;;;;6282534;27;84762;-63
2022/05/06 13:32:12;;;;;;;15.07;10.18;;;24.30;52.90;;;;;;6283225;27;83065;-62
2022/05/06 13:35:13;;;;;;;17.40;9.32;;;24.30;52.90;;;;;;6281191;27;86222;-61
2022/05/06 13:38:13;;;;;;;13.75;9.52;;;24.30;52.90;;;;;;6272139;27;83482;-62
2022/05/06 13:41:14;;;;;;;19.65;11.57;;;24.30;52.70;;;;;;6266246;27;80404;-65
2022/05/06 13:44:14;;;;;;;15.43;9.80;;;24.30;52.80;;;;;;6266084;27;83916;-61
2022/05/06 13:47:15;;;;;;;18.83;10.48;;;24.20;52.50;;;;;;6260998;27;83243;-62
2022/05/06 13:50:15;;;;;;;17.67;10.20;;;24.20;52.60;;;;;;6265122;27;83198;-62
2022/05/06 13:53:16;;;;;;;13.70;9.23;;;24.30;52.60;;;;;;6282245;27;85576;-61
2022/05/06 13:59:35;;;;;;;14.32;10.18;;;24.40;52.80;;;;;;6282006;27;83251;-61
2022/05/06 14:02:36;;;;;;;15.00;10.10;;;24.40;52.80;;;;;;6273158;27;83585;-61
2022/05/06 14:05:38;;;;;;;15.50;10.65;;;24.40;52.90;;;;;;6277899;27;83128;-61
2022/05/06 14:08:39;;;;;;;18.08;10.32;;;24.40;52.50;;;;;;6263092;27;83075;-61
2022/05/06 14:11:39;;;;;;;13.82;10.10;;;24.40;52.30;;;;;;6259358;27;83350;-61
2022/05/06 14:14:40;;;;;;;16.73;9.95;;;24.50;52.30;;;;;;6263183;27;83239;-61
2022/05/06 14:17:41;;;;;;;17.30;9.88;;;24.40;52.30;;;;;;6273240;27;82988;-64
2022/05/06 14:20:41;;;;;;;13.80;9.77;;;24.50;52.30;;;;;;6285779;27;80582;-62
2022/05/06 14:23:42;;;;;;;14.70;9.95;;;24.50;52.40;;;;;;6273968;27;80564;-63
2022/05/06 14:26:42;;;;;;;16.65;10.70;;;24.50;52.40;;;;;;6280058;27;80477;-63
2022/05/06 14:29:43;;;;;;;13.07;8.88;;;24.50;52.40;;;;;;6270280;27;82968;-64
2022/05/06 14:32:46;;;;;;;12.80;9.25;;;24.50;52.60;;;;;;6284775;27;83104;-63
2022/05/06 14:35:47;;;;;;;15.15;9.93;;;24.50;53.00;;;;;;6275396;27;80962;-66
2022/05/06 14:38:48;;;;;;;13.70;9.35;;;24.50;52.50;;;;;;6281540;27;80933;-66
2022/05/06 14:41:49;;;;;;;15.05;9.57;;;24.60;52.60;;;;;;6266957;27;80472;-67
2022/05/06 14:44:49;;;;;;;14.48;9.55;;;24.60;52.70;;;;;;6283643;27;81333;-65
2022/05/06 14:47:50;;;;;;;15.15;10.43;;;24.60;52.60;;;;;;6279981;27;81753;-66
2022/05/06 14:50:50;;;;;;;14.02;9.05;;;24.60;52.60;;;;;;6259769;27;83030;-66
2022/05/06 14:53:51;;;;;;;17.85;11.25;;;24.60;52.50;;;;;;6274115;27;82840;-66
2022/05/06 14:56:52;;;;;;;18.23;9.90;;;24.60;52.60;;;;;;6266928;27;83630;-65
2022/05/06 14:59:52;;;;;;;22.00;11.32;;;24.60;52.60;;;;;;6274085;27;83302;-67
2022/05/06 15:02:53;;;;;;;17.20;10.40;;;24.60;52.50;;;;;;6263838;27;82887;-66
2022/05/06 15:05:53;;;;;;;16.48;10.00;;;24.60;52.50;;;;;;6263565;27;83482;-66
2022/05/06 15:08:54;;;;;;;16.13;10.07;;;24.60;52.60;;;;;;6256697;27;83533;-66
2022/05/06 15:11:54;;;;;;;15.77;10.70;;;24.70;53.00;;;;;;6265987;27;84031;-66
2022/05/06 15:14:55;;;;;;;22.50;12.77;;;24.70;52.50;;;;;;6272328;27;83415;-66
2022/05/06 15:19:23;;;;;;;19.77;11.88;;;24.70;52.60;;;;;;6280418;27;83303;-68
2022/05/06 15:21:16;;;;;;;21.70;12.35;;;24.70;52.80;;;;;;6280637;27;83853;-65
2022/05/06 15:24:16;;;;;;;15.98;10.32;;;24.70;52.60;;;;;;6281246;27;83032;-64
2022/05/06 15:27:21;;;;;;;20.10;12.35;;;24.70;53.30;;;;;;6270169;27;82953;-62
2022/05/06 15:30:21;;;;;;;19.50;11.90;;;24.70;52.50;;;;;;6274939;27;83602;-63
2022/05/06 15:33:22;;;;;;;17.23;11.23;;;24.70;52.50;;;;;;6269415;27;84091;-63
2022/05/06 15:36:22;;;;;;;16.50;10.88;;;24.70;52.40;;;;;;6271291;27;83029;-63
2022/05/06 15:39:23;;;;;;;17.08;11.15;;;24.70;52.20;;;;;;6270390;27;84303;-62
2022/05/06 15:42:23;;;;;;;16.48;10.35;;;24.70;52.10;;;;;;6271457;27;83598;-60
2022/05/06 15:45:24;;;;;;;16.33;10.00;;;24.70;52.10;;;;;;6275683;27;83083;-65
2022/05/06 15:48:25;;;;;;;17.75;9.98;;;24.70;52.20;;;;;;6263938;27;82945;-63
2022/05/06 15:51:25;;;;;;;11.90;8.57;;;24.70;52.20;;;;;;6280178;27;82983;-63
2022/05/06 15:54:26;;;;;;;14.52;9.13;;;24.70;52.40;;;;;;6283229;27;83039;-65
2022/05/06 15:57:26;;;;;;;14.27;8.65;;;24.70;52.60;;;;;;6283288;27;81365;-64
2022/05/06 16:00:27;;;;;;;17.63;8.85;;;24.70;52.40;;;;;;6283774;27;80363;-63
2022/05/06 16:03:27;;;;;;;13.18;8.75;;;24.60;52.60;;;;;;6284383;27;80436;-63
2022/05/06 16:06:28;;;;;;;17.30;9.05;;;24.70;52.70;;;;;;6279222;27;80107;-64
2022/05/06 16:09:28;;;;;;;18.40;8.50;;;24.60;53.00;;;;;;6282808;27;80382;-64
2022/05/06 16:12:29;;;;;;;17.48;8.98;;;24.60;52.60;;;;;;6283443;27;81577;-64
2022/05/06 16:15:29;;;;;;;14.88;9.63;;;24.60;52.50;;;;;;6280846;27;81473;-63
2022/05/06 16:18:30;;;;;;;13.35;9.02;;;24.60;52.50;;;;;;6285369;27;80466;-64
2022/05/06 16:21:31;;;;;;;19.98;10.30;;;24.60;52.60;;;;;;6278593;27;80925;-64
2022/05/06 16:24:31;;;;;;;14.48;9.60;;;24.60;52.40;;;;;;6277378;27;83190;-65
2022/05/06 16:27:32;;;;;;;16.75;10.05;;;24.60;52.50;;;;;;6265151;27;84742;-63
2022/05/06 16:30:32;;;;;;;18.40;9.98;;;24.60;52.40;;;;;;6279197;27;83662;-64
2022/05/06 16:37:20;;;;;;;24.38;12.00;;;24.60;52.70;;;;;;6280801;27;83577;-66